Time;durP1;ratioP1;P1;durP2;ratioP2;P2;SDS_P1;SDS_P2;PMS_P1;PMS_P2;Temp;Humidity;BMP_temperature;BMP_pressure;BME280_temperature;BME280_humidity;BME280_pressure;Samples;Min_cycle;Max_cycle;Signal;HPM_P1;HPM_P2
2023/03/08 00:01:37;;;;;;;17.17;14.28;;;6.30;99.90;;;;;;1914920;75;21102;-89
2023/03/08 00:04:33;;;;;;;19.00;14.95;;;6.30;99.90;;;;;;1903900;75;21134;-88
2023/03/08 00:07:35;;;;;;;16.62;14.03;;;6.30;99.90;;;;;;1902205;75;21144;-87
2023/03/08 00:10:28;;;;;;;19.07;14.78;;;6.30;99.90;;;;;;1896783;75;21175;-88
2023/03/08 00:13:32;;;;;;;16.57;13.40;;;6.30;99.90;;;;;;1895327;75;21161;-88
2023/03/08 00:16:24;;;;;;;18.55;14.58;;;6.30;99.90;;;;;;1895272;75;21190;-88
2023/03/08 00:19:16;;;;;;;20.57;14.53;;;6.30;99.90;;;;;;1917309;75;21051;-87
2023/03/08 00:22:10;;;;;;;18.70;14.70;;;6.30;99.90;;;;;;1884217;75;21161;-87
2023/03/08 00:25:02;;;;;;;18.40;14.58;;;6.30;99.90;;;;;;1884342;76;21105;-87
2023/03/08 00:27:54;;;;;;;18.98;14.85;;;6.40;99.90;;;;;;1833392;77;21553;-89
2023/03/08 00:30:45;;;;;;;20.15;15.45;;;6.40;99.90;;;;;;1906151;75;21106;-90
2023/03/08 00:33:38;;;;;;;20.40;15.35;;;6.30;99.90;;;;;;1903151;75;21201;-88
2023/03/08 00:36:29;;;;;;;18.62;15.32;;;6.30;99.90;;;;;;1903301;75;21098;-88
2023/03/08 00:39:21;;;;;;;19.12;14.47;;;6.30;99.90;;;;;;1906377;75;21092;-89
2023/03/08 00:42:12;;;;;;;17.10;13.20;;;6.30;99.90;;;;;;1887612;75;21160;-88
2023/03/08 00:45:04;;;;;;;18.17;13.53;;;6.30;99.90;;;;;;1896688;75;21142;-88
2023/03/08 00:47:55;;;;;;;20.02;14.05;;;6.30;99.90;;;;;;1899243;75;21059;-88
2023/03/08 00:50:47;;;;;;;18.30;13.55;;;6.30;99.90;;;;;;1917220;75;21154;-87
2023/03/08 00:53:39;;;;;;;16.62;13.85;;;6.30;99.90;;;;;;1917013;75;21160;-88
2023/03/08 00:56:30;;;;;;;17.55;13.83;;;6.30;99.90;;;;;;1891848;76;21125;-87
2023/03/08 00:59:22;;;;;;;17.10;13.72;;;6.30;99.90;;;;;;1909045;74;21098;-87
2023/03/08 01:02:14;;;;;;;18.60;13.32;;;6.30;99.90;;;;;;1893191;74;21178;-88
2023/03/08 01:05:07;;;;;;;19.15;14.35;;;6.30;99.90;;;;;;1915835;74;21179;-88
2023/03/08 01:08:01;;;;;;;18.82;14.45;;;6.20;99.90;;;;;;1906786;74;21095;-88
2023/03/08 01:10:55;;;;;;;16.60;13.65;;;6.30;99.90;;;;;;1893565;76;21098;-88
2023/03/08 01:13:48;;;;;;;20.08;15.10;;;6.30;99.90;;;;;;1907369;74;21155;-88
2023/03/08 01:16:41;;;;;;;22.02;15.10;;;6.30;99.90;;;;;;1917604;74;21135;-89
2023/03/08 01:19:33;;;;;;;17.80;14.60;;;6.30;99.90;;;;;;1915312;74;21433;-88
2023/03/08 01:22:25;;;;;;;20.97;14.78;;;6.20;99.90;;;;;;1893127;76;21216;-88
2023/03/08 01:25:18;;;;;;;18.73;15.48;;;6.30;99.90;;;;;;1908931;74;21130;-88
2023/03/08 01:28:09;;;;;;;21.30;15.63;;;6.30;99.90;;;;;;1896066;74;21279;-87
2023/03/08 01:31:05;;;;;;;19.65;15.32;;;6.20;99.90;;;;;;1898890;74;21047;-88
2023/03/08 01:34:00;;;;;;;19.95;14.45;;;6.30;99.90;;;;;;1924847;74;21172;-88
2023/03/08 01:36:51;;;;;;;19.57;15.53;;;6.20;99.90;;;;;;1911760;74;21039;-87
2023/03/08 01:39:43;;;;;;;19.25;14.78;;;6.20;99.90;;;;;;1907087;74;21647;-89
2023/03/08 01:42:36;;;;;;;18.05;14.63;;;6.20;99.90;;;;;;1904136;74;21208;-88
2023/03/08 01:46:13;;;;;;;18.07;14.00;;;6.20;99.90;;;;;;1904371;74;21145;-87
2023/03/08 01:49:10;;;;;;;18.40;14.65;;;6.20;99.90;;;;;;1900177;74;21098;-88
2023/03/08 01:52:05;;;;;;;17.25;13.78;;;6.20;99.90;;;;;;1899628;74;21063;-89
2023/03/08 01:55:01;;;;;;;18.42;14.30;;;6.20;99.90;;;;;;1893297;76;21090;-88
2023/03/08 01:57:55;;;;;;;16.60;13.65;;;6.20;99.90;;;;;;1906605;74;21406;-89
2023/03/08 02:00:47;;;;;;;18.87;13.18;;;6.20;99.90;;;;;;1906292;74;21132;-88
2023/03/08 02:03:39;;;;;;;18.73;14.85;;;6.10;99.90;;;;;;1918502;74;21164;-89
2023/03/08 02:06:31;;;;;;;16.07;12.55;;;6.10;99.90;;;;;;1896593;74;21183;-88
2023/03/08 02:09:24;;;;;;;15.93;12.28;;;6.00;99.90;;;;;;1905964;74;21098;-88
2023/03/08 02:12:16;;;;;;;13.45;9.85;;;6.00;99.90;;;;;;1893366;76;21172;-88
2023/03/08 02:15:12;;;;;;;16.27;12.20;;;6.00;99.90;;;;;;1915252;74;21109;-88
2023/03/08 02:18:05;;;;;;;15.63;12.40;;;6.00;99.90;;;;;;1892084;74;21124;-89
2023/03/08 02:20:56;;;;;;;18.23;12.80;;;6.10;99.90;;;;;;1915094;74;21521;-88
2023/03/08 02:23:48;;;;;;;19.15;13.75;;;6.10;99.90;;;;;;1911570;74;21087;-89
2023/03/08 02:26:40;;;;;;;19.85;14.35;;;6.10;99.90;;;;;;1913681;74;21117;-87
2023/03/08 02:29:31;;;;;;;18.65;14.45;;;6.00;99.90;;;;;;1900388;74;21051;-89
2023/03/08 02:32:23;;;;;;;17.77;13.18;;;6.00;99.90;;;;;;1904044;74;21090;-88
2023/03/08 02:35:17;;;;;;;17.15;13.70;;;5.90;99.90;;;;;;1907357;74;21160;-88
2023/03/08 02:38:09;;;;;;;16.45;13.03;;;6.00;99.90;;;;;;1861750;76;21089;-87
2023/03/08 02:41:01;;;;;;;18.32;13.80;;;6.00;99.90;;;;;;1907395;74;21145;-88
2023/03/08 02:43:52;;;;;;;15.50;11.88;;;5.90;99.90;;;;;;1932324;74;21601;-87
2023/03/08 02:46:46;;;;;;;17.95;13.72;;;5.90;99.90;;;;;;1912101;74;21098;-88
2023/03/08 02:49:38;;;;;;;19.25;14.55;;;5.90;99.90;;;;;;1857195;77;21597;-88
2023/03/08 02:52:31;;;;;;;17.25;14.33;;;5.80;99.90;;;;;;1899534;75;21105;-88
2023/03/08 02:55:23;;;;;;;17.80;13.38;;;5.80;99.90;;;;;;1921778;74;21150;-89
2023/03/08 02:58:15;;;;;;;17.90;13.83;;;5.80;99.90;;;;;;1899679;74;21248;-87
2023/03/08 03:01:13;;;;;;;16.15;13.32;;;5.80;99.90;;;;;;1889249;76;21186;-89
2023/03/08 03:04:05;;;;;;;11.53;10.13;;;5.80;99.90;;;;;;1909966;74;21110;-87
2023/03/08 03:06:57;;;;;;;11.73;10.00;;;5.80;99.90;;;;;;1901153;74;21105;-88
2023/03/08 03:09:53;;;;;;;14.90;11.78;;;5.90;99.90;;;;;;1857018;77;21151;-88
2023/03/08 03:12:45;;;;;;;16.85;12.95;;;6.00;99.90;;;;;;1899824;75;21153;-88
2023/03/08 03:15:43;;;;;;;13.83;11.63;;;6.00;99.90;;;;;;1873486;76;21089;-88
2023/03/08 03:18:37;;;;;;;12.35;9.38;;;6.00;99.90;;;;;;1911784;74;21171;-88
2023/03/08 03:21:28;;;;;;;6.62;5.55;;;6.00;99.90;;;;;;1910275;74;21105;-88
2023/03/08 03:24:20;;;;;;;6.47;5.37;;;6.10;99.90;;;;;;1910495;74;21101;-88
2023/03/08 03:27:13;;;;;;;7.53;5.75;;;6.20;99.90;;;;;;1838091;77;21157;-88
2023/03/08 03:30:07;;;;;;;7.95;5.42;;;6.20;99.90;;;;;;1899512;75;21102;-89
2023/03/08 03:32:59;;;;;;;6.58;5.17;;;6.30;99.90;;;;;;1855865;77;21508;-87
2023/03/08 03:35:52;;;;;;;4.97;4.17;;;6.30;99.90;;;;;;1857231;77;21088;-88
2023/03/08 03:38:45;;;;;;;4.00;3.05;;;6.30;99.90;;;;;;1857339;77;21104;-88
2023/03/08 03:41:37;;;;;;;5.25;3.17;;;6.30;99.90;;;;;;1916409;74;21133;-88
2023/03/08 03:44:31;;;;;;;3.42;2.67;;;6.40;99.90;;;;;;1931881;74;21157;-88
2023/03/08 03:47:23;;;;;;;3.40;2.90;;;6.50;99.90;;;;;;1909819;74;21223;-88
2023/03/08 03:50:17;;;;;;;3.22;2.50;;;6.50;99.90;;;;;;1909897;74;21179;-88
2023/03/08 03:53:11;;;;;;;3.17;2.67;;;6.50;99.90;;;;;;1912204;74;21118;-88
2023/03/08 03:56:06;;;;;;;3.60;2.70;;;6.50;99.90;;;;;;1857294;77;21179;-88
2023/03/08 03:58:57;;;;;;;3.65;2.92;;;6.50;99.90;;;;;;1910407;74;21163;-88
2023/03/08 04:01:50;;;;;;;3.70;3.05;;;6.50;99.90;;;;;;1904383;74;21216;-87
2023/03/08 04:04:48;;;;;;;4.00;3.17;;;6.50;99.90;;;;;;1921705;74;21142;-88
2023/03/08 04:07:42;;;;;;;3.52;2.87;;;6.50;99.90;;;;;;1899546;75;21192;-88
2023/03/08 04:10:36;;;;;;;3.65;2.47;;;6.50;99.90;;;;;;1914702;74;21121;-88
2023/03/08 04:13:30;;;;;;;3.72;2.80;;;6.50;99.90;;;;;;1910515;74;21151;-88
2023/03/08 04:16:25;;;;;;;4.78;2.58;;;6.50;99.90;;;;;;1926762;74;21134;-87
2023/03/08 04:19:23;;;;;;;2.72;2.10;;;6.50;99.90;;;;;;1921547;74;21047;-87
2023/03/08 04:22:18;;;;;;;2.92;2.20;;;6.50;99.90;;;;;;1899336;75;21054;-88
2023/03/08 04:25:19;;;;;;;2.70;2.12;;;6.50;99.90;;;;;;1932598;74;21200;-88
2023/03/08 04:28:14;;;;;;;3.47;2.05;;;6.60;99.90;;;;;;1919489;74;21234;-89
2023/03/08 04:31:20;;;;;;;2.60;1.90;;;6.60;99.90;;;;;;1920764;74;21122;-88
2023/03/08 04:34:15;;;;;;;3.27;2.30;;;6.60;99.90;;;;;;1921788;74;21117;-88
2023/03/08 04:37:13;;;;;;;2.77;2.00;;;6.60;99.90;;;;;;1921956;74;21204;-88
2023/03/08 04:40:11;;;;;;;2.08;1.72;;;6.60;99.90;;;;;;1920340;74;21124;-88
2023/03/08 04:43:09;;;;;;;2.08;1.70;;;6.60;99.90;;;;;;1917207;74;21074;-88
2023/03/08 04:46:10;;;;;;;1.90;1.70;;;6.70;99.90;;;;;;1912302;74;21091;-89
2023/03/08 04:49:07;;;;;;;2.45;2.10;;;6.70;99.90;;;;;;1910648;74;21106;-87
2023/03/08 04:52:03;;;;;;;1.95;1.70;;;6.60;99.90;;;;;;1904280;74;21103;-88
2023/03/08 04:55:03;;;;;;;2.40;1.50;;;6.70;99.90;;;;;;1899791;74;21412;-88
2023/03/08 04:57:58;;;;;;;1.80;1.37;;;6.70;99.90;;;;;;1914256;74;21171;-89
2023/03/08 05:00:52;;;;;;;1.90;1.55;;;6.70;99.90;;;;;;1899314;75;21525;-88
2023/03/08 05:03:50;;;;;;;2.10;1.67;;;6.70;99.90;;;;;;1921282;74;21121;-88
2023/03/08 05:06:44;;;;;;;3.55;2.20;;;6.70;99.90;;;;;;1905706;74;21090;-90
2023/03/08 05:09:39;;;;;;;2.80;1.62;;;6.70;99.90;;;;;;1910581;74;21117;-87
2023/03/08 05:12:34;;;;;;;2.62;1.80;;;6.70;99.90;;;;;;1914203;74;21176;-88
2023/03/08 05:15:27;;;;;;;2.65;2.00;;;6.70;99.90;;;;;;1884930;75;21062;-87
2023/03/08 05:18:22;;;;;;;2.50;1.50;;;6.80;99.90;;;;;;1909153;74;21098;-88
2023/03/08 05:21:18;;;;;;;2.37;1.90;;;6.80;99.90;;;;;;1905604;74;21231;-88
2023/03/08 05:24:14;;;;;;;2.20;1.70;;;6.80;99.90;;;;;;1884162;75;21062;-89
2023/03/08 05:27:08;;;;;;;2.65;1.98;;;6.80;99.90;;;;;;1900350;74;21090;-87
2023/03/08 05:30:01;;;;;;;3.92;2.77;;;6.80;99.90;;;;;;1899230;75;21634;-88
2023/03/08 05:32:55;;;;;;;5.58;4.00;;;6.80;99.90;;;;;;1921563;74;21171;-88
2023/03/08 05:36:01;;;;;;;5.22;4.00;;;6.90;99.90;;;;;;1921538;74;21152;-88
2023/03/08 05:38:57;;;;;;;3.77;2.65;;;6.90;99.90;;;;;;1925913;74;21159;-87
2023/03/08 05:41:51;;;;;;;3.15;2.67;;;6.80;99.90;;;;;;1932833;74;21142;-88
2023/03/08 05:44:49;;;;;;;3.42;2.40;;;6.80;99.90;;;;;;1917903;74;21115;-88
2023/03/08 05:47:43;;;;;;;4.37;2.92;;;6.90;99.90;;;;;;1933101;74;21117;-88
2023/03/08 05:50:37;;;;;;;3.52;2.67;;;6.90;99.90;;;;;;1902226;74;21179;-88
2023/03/08 05:53:28;;;;;;;4.37;3.47;;;6.80;99.90;;;;;;1900419;74;21202;-88
2023/03/08 05:56:22;;;;;;;5.47;4.62;;;6.80;99.90;;;;;;1876202;76;21278;-88
2023/03/08 05:59:33;;;;;;;6.50;4.70;;;6.90;99.90;;;;;;1913410;74;21156;-88
2023/03/08 06:02:26;;;;;;;5.90;4.70;;;6.80;99.90;;;;;;1913842;74;21090;-90
2023/03/08 06:05:18;;;;;;;5.28;4.17;;;6.90;99.90;;;;;;1910292;74;21122;-88
2023/03/08 06:08:10;;;;;;;6.20;4.95;;;6.90;99.90;;;;;;1933043;74;21114;-88
2023/03/08 06:11:03;;;;;;;5.95;5.08;;;6.80;99.90;;;;;;1911257;74;21138;-88
2023/03/08 06:13:54;;;;;;;6.97;5.30;;;6.80;99.90;;;;;;1899348;75;21161;-87
2023/03/08 06:16:47;;;;;;;6.37;4.75;;;6.90;99.90;;;;;;1899575;75;21062;-88
2023/03/08 06:19:40;;;;;;;6.22;5.12;;;6.90;99.90;;;;;;1863188;76;21085;-88
2023/03/08 06:22:36;;;;;;;6.37;5.08;;;6.90;99.90;;;;;;1910274;74;21101;-88
2023/03/08 06:25:29;;;;;;;7.72;5.97;;;6.80;99.90;;;;;;1932280;74;21566;-89
2023/03/08 06:28:25;;;;;;;7.08;5.53;;;6.70;99.90;;;;;;1913885;74;21173;-88
2023/03/08 06:31:18;;;;;;;6.70;5.78;;;6.70;99.90;;;;;;1909884;74;21065;-90
2023/03/08 06:34:11;;;;;;;7.20;5.55;;;6.70;99.90;;;;;;1910749;74;21155;-88
2023/03/08 06:37:04;;;;;;;6.67;5.58;;;6.70;99.90;;;;;;1910258;74;21138;-88
2023/03/08 06:39:56;;;;;;;6.80;4.95;;;6.80;99.90;;;;;;1900043;75;21512;-88
2023/03/08 06:42:50;;;;;;;5.12;4.58;;;6.80;99.90;;;;;;1911171;74;21623;-88
2023/03/08 06:45:44;;;;;;;6.37;5.37;;;6.80;99.90;;;;;;1909407;74;21163;-87
2023/03/08 06:48:37;;;;;;;6.33;4.97;;;6.80;99.90;;;;;;1853714;77;21143;-88
2023/03/08 06:51:29;;;;;;;6.47;4.97;;;6.80;99.90;;;;;;1899056;75;21089;-88
2023/03/08 06:54:23;;;;;;;5.62;4.60;;;6.80;99.90;;;;;;1913969;74;21058;-89
2023/03/08 06:57:14;;;;;;;5.40;4.22;;;6.90;99.90;;;;;;1901089;74;21141;-89
2023/03/08 07:00:10;;;;;;;5.22;4.20;;;6.90;99.90;;;;;;1925410;74;21167;-88
2023/03/08 07:06:13;;;;;;;6.08;4.65;;;6.90;99.90;;;;;;1991424;71;22335;-88
2023/03/08 07:09:04;;;;;;;5.87;4.85;;;6.90;99.90;;;;;;1953285;73;21093;-89
2023/03/08 07:12:04;;;;;;;6.03;4.75;;;6.90;99.90;;;;;;2033807;70;21042;-89
2023/03/08 07:14:58;;;;;;;6.30;4.85;;;6.90;99.90;;;;;;2040551;69;21098;-88
2023/03/08 07:17:55;;;;;;;7.50;5.10;;;6.90;99.90;;;;;;2044500;69;21114;-90
2023/03/08 07:20:52;;;;;;;6.42;4.87;;;6.90;99.90;;;;;;2045478;69;21594;-88
2023/03/08 07:23:49;;;;;;;7.75;5.15;;;6.90;99.90;;;;;;2031466;70;21646;-88
2023/03/08 07:26:41;;;;;;;6.55;5.08;;;6.90;99.90;;;;;;2033021;70;21035;-89
2023/03/08 07:29:33;;;;;;;8.35;5.55;;;7.00;99.90;;;;;;2032827;70;21090;-88
2023/03/08 07:32:27;;;;;;;7.47;5.50;;;7.00;99.90;;;;;;2032988;70;21081;-89
2023/03/08 07:35:19;;;;;;;8.25;5.50;;;7.00;99.90;;;;;;2033185;70;21102;-89
2023/03/08 07:38:13;;;;;;;8.78;5.20;;;6.90;99.90;;;;;;2031689;70;21123;-88
2023/03/08 07:41:05;;;;;;;7.17;5.17;;;6.90;99.90;;;;;;2044216;69;21181;-90
2023/03/08 07:43:57;;;;;;;6.60;5.40;;;6.90;99.90;;;;;;2045786;69;21023;-89
2023/03/08 07:46:49;;;;;;;7.45;5.25;;;6.90;99.90;;;;;;2068966;69;21114;-88
2023/03/08 07:49:41;;;;;;;6.70;5.10;;;7.00;99.90;;;;;;2006193;71;21075;-89
2023/03/08 07:52:44;;;;;;;9.18;4.90;;;7.10;99.90;;;;;;2056016;69;21050;-89
2023/03/08 07:55:46;;;;;;;7.90;6.00;;;7.10;99.90;;;;;;2031683;70;21078;-89
2023/03/08 07:58:38;;;;;;;10.13;5.45;;;7.00;99.90;;;;;;2034054;70;21560;-89
2023/03/08 08:01:32;;;;;;;9.10;6.05;;;7.00;99.90;;;;;;2034142;70;21086;-89
2023/03/08 08:04:24;;;;;;;15.45;11.70;;;7.10;99.90;;;;;;1990557;72;21148;-89
2023/03/08 08:07:18;;;;;;;8.50;5.83;;;7.10;99.90;;;;;;2056536;70;21051;-88
2023/03/08 08:10:11;;;;;;;9.00;5.85;;;7.10;99.90;;;;;;2034725;70;21115;-88
2023/03/08 08:13:03;;;;;;;7.37;5.25;;;7.10;99.90;;;;;;2034903;70;21135;-88
2023/03/08 08:16:00;;;;;;;6.92;5.25;;;7.10;99.90;;;;;;2030881;69;21101;-89
2023/03/08 08:18:54;;;;;;;8.28;5.37;;;7.10;99.90;;;;;;2033093;70;21108;-88
2023/03/08 08:21:46;;;;;;;8.78;5.17;;;7.10;99.90;;;;;;2031876;70;21066;-89
2023/03/08 08:24:37;;;;;;;8.63;5.78;;;7.20;99.90;;;;;;2031976;70;21071;-89
2023/03/08 08:27:29;;;;;;;8.13;5.75;;;7.20;99.90;;;;;;2031808;70;21513;-89
2023/03/08 08:30:23;;;;;;;9.63;5.50;;;7.20;99.90;;;;;;2031458;70;21142;-89
2023/03/08 08:33:16;;;;;;;6.20;5.15;;;7.20;99.90;;;;;;2033372;70;21096;-88
2023/03/08 08:36:11;;;;;;;28.65;8.15;;;7.20;99.90;;;;;;2041213;69;21103;-89
2023/03/08 08:39:04;;;;;;;10.53;5.80;;;7.20;99.90;;;;;;2044564;69;21110;-89
2023/03/08 08:41:56;;;;;;;12.73;5.67;;;7.30;99.90;;;;;;2069213;69;21066;-88
2023/03/08 08:44:47;;;;;;;7.50;5.20;;;7.40;99.90;;;;;;2049214;69;21022;-88
2023/03/08 08:47:39;;;;;;;6.97;5.00;;;7.50;99.90;;;;;;2032394;69;21079;-88
2023/03/08 08:50:31;;;;;;;6.87;4.58;;;7.50;99.90;;;;;;2031280;70;21136;-89
2023/03/08 08:53:23;;;;;;;7.20;4.92;;;7.60;99.90;;;;;;1986811;72;21079;-89
2023/03/08 08:56:18;;;;;;;6.53;4.53;;;7.60;99.90;;;;;;2041909;70;21152;-88
2023/03/08 08:59:12;;;;;;;7.62;5.12;;;7.60;99.90;;;;;;2031583;70;21163;-88
2023/03/08 09:02:05;;;;;;;11.53;5.37;;;7.60;99.90;;;;;;2032012;70;21147;-88
2023/03/08 09:04:57;;;;;;;12.70;5.80;;;7.70;99.90;;;;;;2034168;70;21097;-89
2023/03/08 09:07:50;;;;;;;10.13;5.87;;;7.70;99.90;;;;;;2033133;70;21241;-89
2023/03/08 09:10:47;;;;;;;8.45;5.30;;;7.70;99.90;;;;;;2032128;70;21068;-89
2023/03/08 09:13:41;;;;;;;10.18;5.28;;;7.70;99.90;;;;;;2032170;70;21090;-89
2023/03/08 09:16:34;;;;;;;7.37;5.22;;;7.70;99.90;;;;;;2031751;70;21031;-89
2023/03/08 09:19:30;;;;;;;8.23;5.22;;;7.90;99.90;;;;;;2031144;70;21089;-89
2023/03/08 09:22:22;;;;;;;8.60;5.45;;;7.90;99.90;;;;;;1986205;72;21031;-88
2023/03/08 09:25:14;;;;;;;7.35;4.75;;;8.00;99.90;;;;;;2032532;70;21078;-88
2023/03/08 09:28:06;;;;;;;8.88;5.10;;;8.20;99.90;;;;;;2031067;70;21171;-88
2023/03/08 09:30:59;;;;;;;6.65;5.92;;;8.30;99.90;;;;;;2057266;69;21166;-88
2023/03/08 09:33:52;;;;;;;11.10;4.67;;;8.30;99.90;;;;;;1986145;72;21094;-89
2023/03/08 09:36:44;;;;;;;6.75;4.75;;;8.40;99.90;;;;;;2042604;70;21085;-88
2023/03/08 09:39:37;;;;;;;7.97;4.95;;;8.40;99.90;;;;;;1985864;72;21199;-89
2023/03/08 09:42:32;;;;;;;8.15;4.65;;;8.50;99.90;;;;;;2030834;70;21074;-89
2023/03/08 09:45:27;;;;;;;6.47;4.83;;;8.60;99.90;;;;;;2030822;69;21106;-88
2023/03/08 09:48:22;;;;;;;6.55;4.72;;;8.80;99.90;;;;;;2031008;70;21085;-88
2023/03/08 09:51:16;;;;;;;6.10;4.17;;;8.80;99.90;;;;;;2032464;70;21140;-88
2023/03/08 09:54:12;;;;;;;7.17;4.97;;;8.80;99.90;;;;;;2030709;69;21577;-88
2023/03/08 09:57:10;;;;;;;11.43;5.40;;;9.00;99.90;;;;;;2031145;70;21128;-89
2023/03/08 10:00:07;;;;;;;6.65;5.03;;;9.10;99.90;;;;;;2034156;70;21143;-89
2023/03/08 10:03:20;;;;;;;7.55;4.40;;;9.30;99.90;;;;;;2034910;70;21090;-88
2023/03/08 10:06:18;;;;;;;7.97;4.75;;;9.40;99.90;;;;;;2032642;70;21093;-89
2023/03/08 10:09:15;;;;;;;8.08;5.10;;;9.50;99.90;;;;;;2033036;70;21102;-88
2023/03/08 10:12:13;;;;;;;7.20;5.75;;;9.50;99.90;;;;;;2033142;70;21147;-89
2023/03/08 10:15:13;;;;;;;8.25;5.33;;;9.50;99.90;;;;;;2031953;70;21120;-88
2023/03/08 10:18:12;;;;;;;8.38;5.83;;;9.50;99.90;;;;;;2031521;70;21139;-89
2023/03/08 10:21:07;;;;;;;7.50;4.90;;;9.50;99.90;;;;;;1990438;72;21101;-88
2023/03/08 10:24:01;;;;;;;8.78;6.17;;;9.60;99.90;;;;;;2031616;70;21062;-89
2023/03/08 10:26:54;;;;;;;7.60;5.28;;;9.80;99.90;;;;;;2033399;70;21071;-90
2023/03/08 10:29:52;;;;;;;10.63;5.33;;;10.00;99.90;;;;;;2035009;70;21059;-89
2023/03/08 10:32:46;;;;;;;6.00;4.40;;;10.20;99.90;;;;;;2065697;69;21018;-89
2023/03/08 10:35:40;;;;;;;5.50;4.08;;;10.40;99.90;;;;;;2041435;69;21128;-89
2023/03/08 10:38:33;;;;;;;5.30;3.72;;;10.60;99.90;;;;;;2032405;70;21097;-89
2023/03/08 10:41:27;;;;;;;6.92;4.35;;;10.70;99.90;;;;;;2002645;71;21085;-89
2023/03/08 10:44:32;;;;;;;6.72;4.60;;;10.80;99.90;;;;;;2032243;69;21078;-89
2023/03/08 10:47:28;;;;;;;7.40;5.10;;;10.80;99.90;;;;;;2032498;70;21070;-89
2023/03/08 10:50:22;;;;;;;5.03;3.98;;;10.90;99.90;;;;;;2034471;70;21128;-89
2023/03/08 10:53:22;;;;;;;6.85;5.70;;;10.90;99.90;;;;;;2034784;70;21108;-91
2023/03/08 10:56:22;;;;;;;9.00;4.78;;;11.00;99.90;;;;;;2032817;70;21148;-89
2023/03/08 10:59:22;;;;;;;6.20;4.53;;;11.00;99.90;;;;;;1986502;72;21042;-89
2023/03/08 11:02:21;;;;;;;7.28;4.70;;;11.10;99.90;;;;;;2031128;70;21599;-89
2023/03/08 11:05:25;;;;;;;4.87;4.00;;;11.10;99.90;;;;;;2032962;70;21443;-88
2023/03/08 11:08:28;;;;;;;5.47;4.33;;;11.10;99.90;;;;;;2059040;69;21124;-90
2023/03/08 11:11:19;;;;;;;9.03;5.62;;;11.10;99.90;;;;;;2038189;70;21074;-89
2023/03/08 11:14:12;;;;;;;7.05;5.78;;;11.10;99.90;;;;;;2038095;70;21117;-89
2023/03/08 11:17:10;;;;;;;4.53;3.80;;;11.10;99.90;;;;;;1994566;72;21295;-89
2023/03/08 11:20:09;;;;;;;5.67;4.10;;;10.90;99.90;;;;;;1952393;73;21619;-89
2023/03/08 11:23:07;;;;;;;5.67;3.60;;;11.00;99.90;;;;;;1957486;73;21086;-89
2023/03/08 11:26:02;;;;;;;8.48;5.40;;;10.80;99.90;;;;;;1989167;70;21098;-89
2023/03/08 11:29:17;;;;;;;10.48;8.05;;;10.70;99.90;;;;;;1980856;71;21090;-91
2023/03/08 11:32:16;;;;;;;6.20;4.67;;;10.60;99.90;;;;;;1994025;72;21107;-91
2023/03/08 11:35:27;;;;;;;6.10;4.30;;;10.60;99.90;;;;;;1980587;72;21051;-89
2023/03/08 11:38:21;;;;;;;5.80;4.33;;;10.60;99.90;;;;;;1980310;72;21114;-89
2023/03/08 11:41:20;;;;;;;6.90;4.95;;;10.50;99.90;;;;;;1992523;71;21031;-89
2023/03/08 11:44:25;;;;;;;5.95;4.05;;;10.50;99.90;;;;;;1983818;71;21124;-89
2023/03/08 11:48:16;;;;;;;6.12;4.10;;;10.40;99.90;;;;;;1993700;72;21098;-88
2023/03/08 11:54:00;;;;;;;6.37;4.42;;;10.30;99.90;;;;;;1944348;72;22302;-90
2023/03/08 11:56:59;;;;;;;5.72;4.67;;;10.30;99.90;;;;;;1917269;75;21086;-88
2023/03/08 12:00:01;;;;;;;8.13;5.58;;;10.30;99.90;;;;;;1940347;73;21098;-88
2023/03/08 12:02:57;;;;;;;8.13;5.78;;;10.30;99.90;;;;;;1917644;75;21197;-89
2023/03/08 12:09:11;;;;;;;7.28;5.62;;;10.20;99.90;;;;;;1991596;71;22162;-88
2023/03/08 12:12:12;;;;;;;6.90;5.35;;;10.20;99.90;;;;;;2035454;70;21279;-90
2023/03/08 12:15:07;;;;;;;5.25;4.72;;;10.10;99.90;;;;;;2025014;70;21069;-89
2023/03/08 12:18:03;;;;;;;5.72;4.42;;;10.10;99.90;;;;;;2000039;70;21061;-90
2023/03/08 12:20:57;;;;;;;6.42;4.70;;;10.00;99.90;;;;;;2032229;70;21069;-89
2023/03/08 12:23:54;;;;;;;8.95;5.42;;;10.10;99.90;;;;;;2012960;70;21160;-88
2023/03/08 12:26:48;;;;;;;6.40;5.22;;;10.10;99.90;;;;;;2010084;70;21127;-89
2023/03/08 12:29:43;;;;;;;7.87;5.45;;;10.10;99.90;;;;;;1997792;70;21192;-89
2023/03/08 12:32:42;;;;;;;8.18;5.50;;;10.00;99.90;;;;;;2000684;70;21085;-89
2023/03/08 12:35:39;;;;;;;8.45;5.85;;;9.90;99.90;;;;;;2031111;70;21102;-89
2023/03/08 12:38:39;;;;;;;7.60;5.90;;;9.90;99.90;;;;;;2016938;70;21119;-89
2023/03/08 12:41:32;;;;;;;7.53;6.28;;;9.70;99.90;;;;;;1995434;72;21150;-89
2023/03/08 12:44:29;;;;;;;6.80;5.85;;;9.70;99.90;;;;;;2007639;70;21171;-89
2023/03/08 12:47:22;;;;;;;11.63;7.55;;;9.70;99.90;;;;;;2007442;70;21120;-89
2023/03/08 12:50:18;;;;;;;8.48;7.40;;;9.70;99.90;;;;;;2004944;70;21123;-89
2023/03/08 12:53:26;;;;;;;10.50;7.05;;;9.70;99.90;;;;;;2018130;70;21361;-89
2023/03/08 12:56:29;;;;;;;8.23;6.40;;;9.80;99.90;;;;;;2032216;70;21085;-89
2023/03/08 13:02:30;;;;;;;8.10;7.05;;;9.90;99.90;;;;;;1962763;72;22235;-89
2023/03/08 13:05:30;;;;;;;9.53;7.70;;;10.00;99.90;;;;;;1916909;75;21172;-88
2023/03/08 13:08:28;;;;;;;10.23;7.28;;;10.00;99.90;;;;;;1917261;75;21114;-88
2023/03/08 13:11:20;;;;;;;9.43;6.45;;;10.00;99.90;;;;;;1940019;73;21625;-88
2023/03/08 13:14:27;;;;;;;7.17;6.42;;;10.00;99.90;;;;;;1917470;75;21117;-89
2023/03/08 13:17:35;;;;;;;9.08;6.90;;;10.00;99.90;;;;;;1917484;75;21115;-88
2023/03/08 13:20:29;;;;;;;7.85;6.45;;;10.00;99.90;;;;;;1917418;75;21094;-89
2023/03/08 13:23:28;;;;;;;8.63;6.00;;;10.00;99.90;;;;;;1917446;75;21051;-89
2023/03/08 13:29:41;;;;;;;8.85;6.80;;;9.90;99.90;;;;;;1947155;72;22178;-89
2023/03/08 13:32:34;;;;;;;7.47;6.22;;;9.90;99.90;;;;;;1905695;74;21100;-89
2023/03/08 13:35:26;;;;;;;7.20;6.20;;;9.90;99.90;;;;;;1904780;75;21103;-89
2023/03/08 13:38:22;;;;;;;6.40;5.28;;;9.90;99.90;;;;;;1904927;75;21067;-89
2023/03/08 13:41:13;;;;;;;5.72;4.85;;;9.90;99.90;;;;;;1904831;75;21063;-88
2023/03/08 13:44:08;;;;;;;9.10;6.30;;;10.00;99.90;;;;;;1905066;75;21118;-88
2023/03/08 13:49:50;;;;;;;7.17;6.05;;;10.30;99.90;;;;;;1956582;72;22079;-90
2023/03/08 13:52:42;;;;;;;8.90;6.55;;;10.40;99.90;;;;;;1916944;75;21167;-88
2023/03/08 13:55:37;;;;;;;8.38;6.72;;;10.40;99.90;;;;;;1926365;73;21267;-87
2023/03/08 13:58:36;;;;;;;10.00;6.42;;;10.30;99.90;;;;;;1923416;73;21198;-89
2023/03/08 14:01:48;;;;;;;7.92;6.47;;;10.20;99.90;;;;;;1917386;75;21625;-89
2023/03/08 14:07:33;;;;;;;8.78;7.20;;;10.30;99.90;;;;;;1957962;72;20397;-90
2023/03/08 14:10:26;;;;;;;11.50;7.42;;;10.30;99.90;;;;;;1896618;75;21087;-89
2023/03/08 14:13:25;;;;;;;10.05;7.90;;;10.20;99.90;;;;;;1894963;75;21160;-90
2023/03/08 14:16:28;;;;;;;9.60;7.15;;;10.10;99.90;;;;;;1895265;75;21199;-88
2023/03/08 14:19:24;;;;;;;10.38;6.70;;;10.10;99.90;;;;;;1893996;75;21623;-88
2023/03/08 14:22:19;;;;;;;6.83;5.12;;;10.10;99.90;;;;;;1904421;75;21039;-89
2023/03/08 14:25:23;;;;;;;;;;;10.10;99.90;;;;;;1903712;75;21118;-89
2023/03/08 14:28:39;;;;;;;4.15;3.67;;;10.20;99.90;;;;;;1904480;75;20170;-88
2023/03/08 14:31:34;;;;;;;4.47;3.80;;;10.20;99.90;;;;;;1884490;76;21109;-88
2023/03/08 14:34:27;;;;;;;5.30;3.02;;;10.30;99.90;;;;;;1906224;75;21118;-89
2023/03/08 14:37:23;;;;;;;5.20;3.20;;;10.40;99.90;;;;;;1906482;75;21091;-89
2023/03/08 14:40:29;;;;;;;5.50;3.77;;;10.40;99.90;;;;;;1884007;75;21109;-88
2023/03/08 14:43:23;;;;;;;5.28;4.10;;;10.40;99.90;;;;;;1904164;75;21197;-88
2023/03/08 14:46:19;;;;;;;6.75;4.72;;;10.40;99.90;;;;;;1899607;75;21627;-89
2023/03/08 14:49:21;;;;;;;7.05;5.03;;;10.40;99.90;;;;;;1906101;75;21114;-88
2023/03/08 14:52:21;;;;;;;7.37;5.15;;;10.30;99.90;;;;;;1869997;76;21131;-89
2023/03/08 14:55:25;;;;;;;7.80;5.83;;;10.20;99.90;;;;;;1887671;75;21362;-88
2023/03/08 14:58:16;;;;;;;7.80;5.20;;;10.30;99.90;;;;;;1893995;75;21111;-89
2023/03/08 15:01:09;;;;;;;6.65;5.55;;;10.20;99.90;;;;;;1884298;76;21142;-88
2023/03/08 15:04:01;;;;;;;7.78;5.78;;;10.30;99.90;;;;;;1884065;76;21637;-89
2023/03/08 15:06:54;;;;;;;11.75;6.58;;;10.30;99.90;;;;;;1913047;74;21077;-88
2023/03/08 15:09:47;;;;;;;10.40;7.50;;;10.30;99.90;;;;;;1882914;76;21126;-89
2023/03/08 15:12:42;;;;;;;10.95;7.92;;;10.30;99.90;;;;;;1912027;74;21097;-88
2023/03/08 15:15:35;;;;;;;26.42;17.57;;;10.30;99.90;;;;;;1873465;76;21160;-89
2023/03/08 15:18:26;;;;;;;24.52;16.90;;;10.30;99.90;;;;;;1910733;74;21119;-88
2023/03/08 15:24:02;;;;;;;25.97;16.75;;;10.40;99.90;;;;;;1953446;72;22342;-90
2023/03/08 15:26:56;;;;;;;24.20;14.80;;;10.40;99.90;;;;;;1904919;74;21062;-89
2023/03/08 15:29:48;;;;;;;13.15;8.90;;;10.40;99.90;;;;;;1895311;75;21051;-88
2023/03/08 15:32:42;;;;;;;15.10;8.08;;;10.40;99.90;;;;;;1880695;76;21094;-91
2023/03/08 15:35:34;;;;;;;7.70;4.95;;;10.40;99.90;;;;;;1893632;75;21092;-89
2023/03/08 15:38:26;;;;;;;6.30;4.67;;;10.40;99.90;;;;;;1902564;75;21172;-89